This is the latest recevied weather packets stored in our database for station/object JF2ZGN-13. If no packets are shown the sender has not sent any weather packets the latest 10 day(s).
| Time | Temp. | Humidity | Pressure | Rain* | Wind** | Luminosity | Snow |
|---|---|---|---|---|---|---|---|
| 1787652992 | 23.33° C | 70% | 909.5 hPa | 0 mm | - | - | - |
| 1787652393 | 23.33° C | 70% | 909 hPa | 0 mm | - | - | - |
| 1787651791 | 22.78° C | 75% | 909.4 hPa | 0 mm | - | - | - |
| 1787651191 | 22.78° C | 78% | 909.4 hPa | 0 mm | - | - | - |
| 1787650590 | 22.22° C | 79% | 909.3 hPa | 0 mm | - | - | - |
| 1787649990 | 22.22° C | 78% | 909.3 hPa | 0 mm | - | - | - |
| 1787649390 | 22.78° C | 77% | 909.3 hPa | 0 mm | - | - | - |
| 1787648789 | 22.78° C | 76% | 909.2 hPa | 0 mm | - | - | - |
| 1787648189 | 22.78° C | 76% | 909.3 hPa | 0 mm | - | - | - |
| 1787647589 | 22.78° C | 78% | 909.4 hPa | 0 mm | - | - | - |
| 1787646988 | 23.33° C | 76% | 909.3 hPa | 0 mm | - | - | - |
| 1787646387 | 23.89° C | 72% | 909.5 hPa | 0 mm | - | - | - |
| 1787645787 | 23.89° C | 70% | 909.2 hPa | 0 mm | - | - | - |
| 1787645186 | 24.44° C | 67% | 909 hPa | 0 mm | - | - | - |
| 1787644587 | 24.44° C | 67% | 909.5 hPa | 0 mm | - | - | - |
| 1787643985 | 24.44° C | 68% | 909.6 hPa | 0 mm | - | - | - |
| 1787643385 | 24.44° C | 68% | 909.7 hPa | 0 mm | - | - | - |
| 1787642784 | 24.44° C | 66% | 909.7 hPa | 0 mm | - | - | - |
| 1787642185 | 24.44° C | 69% | 909.7 hPa | 0 mm | - | - | - |
| 1787641583 | 24.44° C | 69% | 909.7 hPa | 0 mm | - | - | - |
| 1787640983 | 24.44° C | 69% | 909.7 hPa | 0 mm | - | - | - |
| 1787640383 | 23.89° C | 72% | 909.7 hPa | 0 mm | - | - | - |
| 1787639782 | 24.44° C | 68% | 909.7 hPa | 0 mm | - | - | - |
| 1787639183 | 24.44° C | 68% | 909.8 hPa | 0 mm | - | - | - |
| 1787638582 | 24.44° C | 67% | 909.9 hPa | 0 mm | - | - | - |
* Rain since midnight (hover to see other rain measurements)
** Current wind speed in m/s (hover to see current wind gust speed)